createdAt,value
2022-12-13T00:04:29.845Z,59.52
2022-12-13T00:09:54.172Z,60.81
2022-12-13T00:15:19.767Z,65.15
2022-12-13T00:21:00.977Z,61.93
2022-12-13T00:26:42.735Z,60.04
2022-12-13T00:32:06.665Z,59.19
2022-12-13T00:37:30.437Z,64.08
2022-12-13T00:42:54.391Z,64.27
2022-12-13T00:48:35.716Z,60.53
2022-12-13T00:54:16.771Z,58.89
2022-12-13T00:59:58.208Z,59.55
2022-12-13T01:06:13.803Z,64.69
2022-12-13T01:11:41.287Z,65.15
2022-12-13T01:17:05.187Z,61.54
2022-12-13T01:22:29.117Z,58.30
2022-12-13T01:27:52.647Z,59.61
2022-12-13T01:33:34.094Z,66.07
2022-12-13T01:39:18.558Z,64.12
2022-12-13T01:45:03.951Z,61.47
2022-12-13T01:50:46.361Z,59.17
2022-12-13T01:56:10.999Z,57.18
2022-12-13T02:01:34.580Z,63.01
2022-12-13T02:06:58.313Z,65.46
2022-12-13T02:12:39.939Z,61.60
2022-12-13T02:18:23.657Z,60.18
2022-12-13T02:24:08.950Z,59.48
2022-12-13T02:30:08.974Z,58.17
2022-12-13T02:36:02.103Z,65.90
2022-12-13T02:41:44.341Z,62.92
2022-12-13T02:47:22.191Z,60.49
2022-12-13T02:52:46.904Z,58.55
2022-12-13T02:58:13.831Z,61.98
2022-12-13T03:03:43.634Z,64.87
2022-12-13T03:09:36.568Z,60.96
2022-12-13T03:15:18.620Z,59.11
2022-12-13T03:21:01.513Z,62.60
2022-12-13T03:26:42.788Z,63.50
2022-12-13T03:32:07.587Z,60.23
2022-12-13T03:37:31.309Z,56.89
2022-12-13T03:42:54.927Z,63.57
2022-12-13T03:48:36.559Z,63.94
2022-12-13T03:54:18.992Z,60.77
2022-12-13T04:00:00.132Z,58.25
2022-12-13T04:05:24.233Z,62.23
2022-12-13T04:11:26.158Z,65.29
2022-12-13T04:17:19.197Z,61.71
2022-12-13T04:23:01.330Z,60.32
2022-12-13T04:28:54.701Z,59.68
2022-12-13T04:34:18.735Z,59.28
2022-12-13T04:40:00.880Z,61.98
2022-12-13T04:45:24.962Z,64.66
2022-12-13T04:51:06.260Z,61.87
2022-12-13T04:56:48.175Z,59.92
2022-12-13T05:02:12.486Z,59.66
2022-12-13T05:07:35.940Z,65.12
2022-12-13T05:13:06.865Z,63.07
2022-12-13T05:18:30.709Z,61.04
2022-12-13T05:24:11.980Z,60.14
2022-12-13T05:30:02.807Z,59.65
2022-12-13T05:35:45.775Z,59.26
2022-12-13T05:41:09.515Z,64.23
2022-12-13T05:46:38.324Z,63.26
2022-12-13T05:52:04.796Z,60.78
2022-12-13T05:57:28.817Z,59.42
2022-12-13T06:02:53.465Z,63.25
2022-12-13T06:08:24.897Z,64.24
2022-12-13T06:14:06.954Z,61.19
2022-12-13T06:20:22.982Z,59.58
2022-12-13T06:26:06.673Z,59.43
2022-12-13T06:31:47.994Z,65.05
2022-12-13T06:37:13.322Z,62.12
2022-12-13T06:42:37.237Z,59.12
2022-12-13T06:48:00.904Z,62.74
2022-12-13T06:53:42.586Z,63.44
2022-12-13T06:59:23.629Z,60.69
2022-12-13T07:05:04.392Z,59.39
2022-12-13T07:10:47.809Z,61.73
2022-12-13T07:16:16.501Z,64.18
2022-12-13T07:21:42.372Z,60.98
2022-12-13T07:27:06.556Z,59.65
2022-12-13T07:32:30.566Z,59.09
2022-12-13T07:38:11.932Z,63.84
2022-12-13T07:43:55.002Z,63.13
2022-12-13T07:49:20.396Z,60.66
2022-12-13T07:55:02.746Z,59.02
2022-12-13T08:00:26.966Z,61.77
2022-12-13T08:06:09.243Z,64.38
2022-12-13T08:11:50.582Z,60.59
2022-12-13T08:17:14.791Z,59.03
2022-12-13T08:22:39.227Z,63.88
2022-12-13T08:28:03.209Z,62.81
2022-12-13T08:33:47.216Z,59.48
2022-12-13T08:39:28.653Z,61.36
2022-12-13T08:45:10.344Z,64.13
2022-12-13T08:50:51.596Z,60.36
2022-12-13T08:56:15.937Z,59.02
2022-12-13T09:01:39.487Z,64.07
2022-12-13T09:07:03.921Z,61.99
2022-12-13T09:12:45.346Z,58.87
2022-12-13T09:18:36.051Z,62.81
2022-12-13T09:24:24.088Z,63.39
2022-12-13T09:30:08.391Z,59.79
2022-12-13T09:35:49.611Z,60.12
2022-12-13T09:41:52.782Z,64.49
2022-12-13T09:47:35.196Z,60.66
2022-12-13T09:53:21.854Z,59.27
2022-12-13T09:59:04.230Z,64.33
2022-12-13T10:04:30.064Z,61.12
2022-12-13T10:10:11.503Z,58.63
2022-12-13T10:15:53.647Z,63.67
2022-12-13T10:21:20.662Z,61.02
2022-12-13T10:26:44.668Z,58.89
2022-12-13T10:32:13.923Z,63.37
2022-12-13T10:37:38.734Z,61.49
2022-12-13T10:43:24.385Z,58.72
2022-12-13T10:49:05.694Z,63.18
2022-12-13T10:54:38.458Z,61.42
2022-12-13T11:00:40.565Z,57.99
2022-12-13T11:06:22.653Z,62.95
2022-12-13T11:12:06.411Z,60.80
2022-12-13T11:17:31.664Z,57.57
2022-12-13T11:23:12.781Z,61.82
2022-12-13T11:28:57.014Z,62.11
2022-12-13T11:34:24.339Z,57.74
2022-12-13T11:39:50.401Z,59.10
2022-12-13T11:45:37.260Z,63.41
2022-12-13T11:51:00.941Z,59.37
2022-12-13T11:56:44.926Z,58.11
2022-12-13T12:02:35.198Z,62.65
2022-12-13T12:08:37.178Z,60.80
2022-12-13T12:14:25.582Z,56.57
2022-12-13T12:20:07.678Z,61.20
2022-12-13T12:25:34.753Z,63.52
2022-12-13T12:31:34.400Z,57.76
2022-12-13T12:37:31.997Z,57.76
2022-12-13T12:43:39.660Z,62.52
2022-12-13T12:49:40.698Z,64.44
2022-12-13T12:55:22.677Z,56.84
2022-12-13T13:01:22.462Z,57.55
2022-12-13T13:07:22.509Z,61.38
2022-12-13T13:13:12.634Z,63.04
2022-12-13T13:19:25.463Z,58.18
2022-12-13T13:25:07.050Z,54.94
2022-12-13T13:30:31.068Z,59.59
2022-12-13T13:36:14.902Z,62.80
2022-12-13T13:42:17.176Z,59.93
2022-12-13T13:48:01.516Z,55.90
2022-12-13T13:53:44.622Z,58.56
2022-12-13T13:59:24.382Z,60.17
2022-12-13T14:04:54.938Z,62.35
2022-12-13T14:10:39.149Z,63.89
2022-12-13T14:16:12.208Z,56.81
2022-12-13T14:22:02.990Z,54.88
2022-12-13T14:28:02.907Z,57.57
2022-12-13T14:33:49.171Z,59.01
2022-12-13T14:39:31.475Z,59.54
2022-12-13T14:45:17.732Z,65.86
2022-12-13T14:50:59.669Z,66.43
2022-12-13T14:56:28.615Z,59.62
2022-12-13T15:01:57.032Z,51.51
2022-12-13T15:07:24.404Z,49.04
2022-12-13T15:12:49.078Z,54.06
2022-12-13T15:18:30.286Z,56.53
2022-12-13T15:24:30.655Z,57.74
2022-12-13T15:30:15.536Z,60.47
2022-12-13T15:35:39.156Z,64.28
2022-12-13T15:41:21.015Z,71.03
2022-12-13T15:47:09.855Z,69.23
2022-12-13T15:52:34.807Z,65.04
2022-12-13T15:58:35.592Z,60.42
2022-12-13T16:04:22.193Z,48.14
2022-12-13T16:10:03.394Z,43.63
2022-12-13T16:15:29.993Z,44.25
2022-12-13T16:20:56.826Z,45.36
2022-12-13T16:26:25.861Z,46.61
2022-12-13T16:31:50.279Z,48.00
2022-12-13T16:37:31.469Z,49.03
2022-12-13T16:43:19.720Z,50.58
2022-12-13T16:49:01.575Z,52.03
2022-12-13T16:54:26.177Z,53.02
2022-12-13T16:59:50.101Z,53.97
2022-12-13T17:05:14.179Z,54.86
2022-12-13T17:10:58.198Z,55.60
2022-12-13T17:16:39.711Z,56.15
2022-12-13T17:22:21.658Z,56.98
2022-12-13T17:27:46.735Z,57.66
2022-12-13T17:33:12.431Z,58.08
2022-12-13T17:38:36.570Z,59.63
2022-12-13T17:44:20.993Z,61.46
2022-12-13T17:49:45.022Z,61.22
2022-12-13T17:55:13.517Z,60.90
2022-12-13T18:01:00.113Z,61.02
2022-12-13T18:06:41.908Z,61.13
2022-12-13T18:12:23.337Z,60.82
2022-12-13T18:18:12.573Z,60.95
2022-12-13T18:23:37.362Z,61.10
2022-12-13T18:29:19.802Z,61.26
2022-12-13T18:35:01.733Z,61.46
2022-12-13T18:40:25.853Z,61.80
2022-12-13T18:45:49.470Z,72.12
2022-12-13T18:51:14.745Z,79.23
2022-12-13T18:56:55.819Z,74.37
2022-12-13T19:02:38.893Z,68.79
2022-12-13T19:08:26.542Z,62.87
2022-12-13T19:14:08.146Z,51.75
2022-12-13T19:19:32.133Z,45.43
2022-12-13T19:25:14.147Z,45.27
2022-12-13T19:30:37.793Z,46.41
2022-12-13T19:36:19.450Z,47.55
2022-12-13T19:41:43.982Z,49.04
2022-12-13T19:47:08.078Z,50.38
2022-12-13T19:52:32.579Z,51.70
2022-12-13T19:57:56.256Z,52.78
2022-12-13T20:03:38.363Z,53.59
2022-12-13T20:09:20.344Z,54.60
2022-12-13T20:14:44.457Z,55.78
2022-12-13T20:20:36.126Z,56.67
2022-12-13T20:26:28.507Z,57.40
2022-12-13T20:32:10.304Z,58.27
2022-12-13T20:37:33.583Z,58.79
2022-12-13T20:43:15.386Z,59.39
2022-12-13T20:48:41.140Z,59.72
2022-12-13T20:54:22.499Z,59.96
2022-12-13T21:00:04.539Z,75.39
2022-12-13T21:05:28.968Z,77.35
2022-12-13T21:10:53.499Z,72.12
2022-12-13T21:16:17.774Z,67.09
2022-12-13T21:22:00.391Z,62.41
2022-12-13T21:27:41.566Z,58.16
2022-12-13T21:33:23.307Z,55.56
2022-12-13T21:39:24.520Z,53.76
2022-12-13T21:45:06.036Z,52.42
2022-12-13T21:50:29.971Z,51.06
2022-12-13T21:56:14.667Z,49.99
2022-12-13T22:01:55.931Z,49.58
2022-12-13T22:07:38.489Z,48.96
2022-12-13T22:13:19.666Z,48.89
2022-12-13T22:18:43.583Z,48.03
2022-12-13T22:24:25.744Z,47.31
2022-12-13T22:30:08.348Z,46.68
2022-12-13T22:35:32.223Z,46.08
2022-12-13T22:40:56.080Z,45.70
2022-12-13T22:46:21.427Z,45.32
2022-12-13T22:52:02.881Z,44.92
2022-12-13T22:57:45.117Z,44.53
2022-12-13T23:03:30.366Z,44.49
2022-12-13T23:09:15.674Z,44.12
2022-12-13T23:14:39.716Z,43.88
2022-12-13T23:20:21.244Z,43.35
2022-12-13T23:25:44.651Z,42.83
2022-12-13T23:31:31.576Z,42.68
2022-12-13T23:37:13.945Z,43.03
2022-12-13T23:42:37.732Z,43.38
2022-12-13T23:48:23.724Z,43.49
2022-12-13T23:54:07.897Z,43.32
2022-12-13T23:59:31.485Z,43.00
